Time;durP1;ratioP1;P1;durP2;ratioP2;P2;SDS_P1;SDS_P2;PMS_P1;PMS_P2;Temp;Humidity;BMP_temperature;BMP_pressure;BME280_temperature;BME280_humidity;BME280_pressure;Samples;Min_cycle;Max_cycle;Signal;HPM_P1;HPM_P2
2021/10/02 00:45:03;;;;;;;19.45;17.17;;;13.20;99.90;;;;;;5043865;28;20108;-81
2021/10/02 00:47:34;;;;;;;20.90;17.33;;;13.30;99.90;;;;;;5053099;28;20082;-80
2021/10/02 00:50:00;;;;;;;25.80;17.10;;;13.20;99.90;;;;;;5053464;28;20017;-80
2021/10/02 00:52:26;;;;;;;24.95;17.00;;;13.20;99.90;;;;;;5055588;28;20047;-79
2021/10/02 00:54:51;;;;;;;23.25;16.17;;;13.20;99.90;;;;;;5053444;28;20025;-81
2021/10/02 00:57:17;;;;;;;25.70;18.17;;;13.20;99.90;;;;;;5053676;28;20029;-80
2021/10/02 00:59:45;;;;;;;27.55;17.45;;;13.30;99.90;;;;;;5052909;28;20025;-80
2021/10/02 01:02:22;;;;;;;32.75;16.90;;;13.30;99.90;;;;;;5052594;28;20543;-81
2021/10/02 01:05:11;;;;;;;26.48;15.98;;;13.40;99.90;;;;;;5052837;28;20489;-81
2021/10/02 01:08:02;;;;;;;27.83;15.77;;;13.40;99.90;;;;;;5054625;28;20085;-81
2021/10/02 01:10:58;;;;;;;24.10;16.95;;;13.40;99.90;;;;;;5060522;28;20008;-80
2021/10/02 01:13:39;;;;;;;25.33;16.13;;;13.40;99.90;;;;;;5043854;28;20026;-80
2021/10/02 01:16:28;;;;;;;24.92;16.95;;;13.50;99.90;;;;;;5044348;28;20388;-80
2021/10/02 01:19:38;;;;;;;23.25;16.38;;;13.50;99.90;;;;;;5052531;28;20045;-80
2021/10/02 01:22:14;;;;;;;21.60;16.07;;;13.60;99.90;;;;;;5053227;28;20036;-80
2021/10/02 01:25:05;;;;;;;23.58;16.33;;;13.60;99.90;;;;;;5053368;28;20465;-80
2021/10/02 01:27:50;;;;;;;29.50;15.68;;;13.60;99.90;;;;;;5034272;28;20029;-80
2021/10/02 01:31:16;;;;;;;24.58;15.95;;;13.60;99.90;;;;;;5048712;28;20048;-80
2021/10/02 01:33:23;;;;;;;23.27;15.40;;;13.60;99.90;;;;;;5041843;28;20049;-80
2021/10/02 01:36:06;;;;;;;24.38;16.27;;;13.50;99.90;;;;;;5052212;28;20029;-80
2021/10/02 01:49:34;;;;;;;26.05;16.10;;;13.30;99.90;;;;;;5039475;28;20090;-81
2021/10/02 01:52:00;;;;;;;21.90;14.40;;;13.20;99.90;;;;;;5051445;28;20033;-80
2021/10/02 01:54:28;;;;;;;26.40;14.52;;;13.20;99.90;;;;;;5052206;28;20439;-80
2021/10/02 01:56:54;;;;;;;27.58;15.65;;;13.20;99.90;;;;;;5051892;28;20488;-79
2021/10/02 01:59:20;;;;;;;22.10;15.55;;;13.20;99.90;;;;;;5051553;28;20108;-80
2021/10/02 02:01:48;;;;;;;25.75;15.95;;;13.30;99.90;;;;;;5055517;28;20441;-81
2021/10/02 02:04:15;;;;;;;27.65;15.20;;;13.30;99.90;;;;;;5052426;28;20355;-79
2021/10/02 02:06:43;;;;;;;47.85;16.77;;;13.20;99.90;;;;;;5052102;28;20057;-80
2021/10/02 02:09:11;;;;;;;18.92;13.82;;;13.30;99.90;;;;;;5051944;28;20035;-80
2021/10/02 02:11:38;;;;;;;20.10;14.10;;;13.20;99.90;;;;;;5045073;28;20036;-79
2021/10/02 02:14:04;;;;;;;21.58;13.70;;;13.20;99.90;;;;;;5044886;28;20025;-80
2021/10/02 02:16:34;;;;;;;18.02;13.15;;;13.10;99.90;;;;;;5051497;28;20070;-80
2021/10/02 02:19:00;;;;;;;29.23;13.65;;;13.10;99.90;;;;;;5039389;28;20102;-81
2021/10/02 02:21:26;;;;;;;23.00;13.23;;;13.00;99.90;;;;;;5052098;28;20485;-80
2021/10/02 02:23:54;;;;;;;20.33;12.40;;;12.90;99.90;;;;;;5051931;28;20028;-79
2021/10/02 02:26:19;;;;;;;16.65;12.93;;;12.90;99.90;;;;;;5055422;28;20021;-80
2021/10/02 02:28:45;;;;;;;22.40;14.38;;;12.80;99.90;;;;;;5055806;28;20032;-79
2021/10/02 02:31:11;;;;;;;23.92;15.15;;;12.80;99.90;;;;;;5056203;28;20035;-80
2021/10/02 02:33:38;;;;;;;21.80;15.43;;;12.80;99.90;;;;;;5055128;28;20044;-80
2021/10/02 02:36:05;;;;;;;26.50;14.50;;;12.80;99.90;;;;;;5055675;28;20341;-80
2021/10/02 02:38:31;;;;;;;31.98;15.35;;;12.80;99.90;;;;;;5055610;28;20465;-79
2021/10/02 02:40:57;;;;;;;22.08;15.30;;;12.80;99.90;;;;;;5055148;28;20028;-79
2021/10/02 02:43:28;;;;;;;22.02;15.23;;;12.80;99.90;;;;;;5043827;28;20025;-79
2021/10/02 02:46:03;;;;;;;24.40;14.40;;;12.80;99.90;;;;;;5054538;28;20119;-80
2021/10/02 02:48:35;;;;;;;33.20;14.70;;;12.70;99.90;;;;;;5055231;28;20427;-80
2021/10/02 02:51:15;;;;;;;23.60;14.63;;;12.70;99.90;;;;;;5055463;28;20052;-80
2021/10/02 02:53:52;;;;;;;22.05;15.88;;;12.60;99.90;;;;;;5055238;28;20041;-80
2021/10/02 02:56:21;;;;;;;24.10;16.45;;;12.50;99.90;;;;;;5055369;28;20103;-79
2021/10/02 02:58:51;;;;;;;24.15;16.00;;;12.50;99.90;;;;;;5055443;28;20028;-80
2021/10/02 03:01:20;;;;;;;28.65;16.80;;;12.40;99.90;;;;;;5040675;28;20041;-80
2021/10/02 03:03:46;;;;;;;26.88;15.80;;;12.40;99.90;;;;;;5055464;28;20429;-80
2021/10/02 03:06:13;;;;;;;29.25;17.20;;;12.40;99.90;;;;;;5055557;28;20039;-79
2021/10/02 03:08:43;;;;;;;22.02;15.35;;;12.40;99.90;;;;;;5055268;28;20028;-80
2021/10/02 03:11:10;;;;;;;25.85;15.73;;;12.50;99.90;;;;;;5055508;28;20021;-81
2021/10/02 03:13:38;;;;;;;26.02;16.00;;;12.40;99.90;;;;;;5041286;28;20033;-81
2021/10/02 03:16:10;;;;;;;34.80;18.08;;;12.40;99.90;;;;;;5054387;28;20064;-80
2021/10/02 03:18:44;;;;;;;25.30;17.00;;;12.40;99.90;;;;;;5055303;28;20045;-80
2021/10/02 03:21:10;;;;;;;25.83;17.88;;;12.40;99.90;;;;;;5055199;28;20052;-80
2021/10/02 03:23:39;;;;;;;28.75;18.25;;;12.40;99.90;;;;;;5054528;28;20021;-80
2021/10/02 03:26:06;;;;;;;28.80;18.77;;;12.40;99.90;;;;;;5054636;28;20499;-80
2021/10/02 03:28:33;;;;;;;29.73;18.33;;;12.30;99.90;;;;;;5055240;28;20053;-79
2021/10/02 03:30:59;;;;;;;31.15;17.58;;;12.30;99.90;;;;;;5054039;28;20021;-81
2021/10/02 03:33:26;;;;;;;29.95;18.60;;;12.30;99.90;;;;;;5055097;28;20068;-79
2021/10/02 03:35:52;;;;;;;36.08;18.52;;;12.20;99.90;;;;;;5054108;28;20025;-80
2021/10/02 03:38:18;;;;;;;26.67;17.80;;;12.20;99.90;;;;;;5054806;28;20056;-79
2021/10/02 03:40:43;;;;;;;33.03;19.48;;;12.20;99.90;;;;;;5054373;28;20059;-80
2021/10/02 03:43:09;;;;;;;25.55;17.40;;;12.10;99.90;;;;;;5053845;28;20158;-79
2021/10/02 03:45:39;;;;;;;34.63;19.33;;;12.10;99.90;;;;;;5054467;28;20124;-80
2021/10/02 03:48:06;;;;;;;26.77;18.77;;;12.10;99.90;;;;;;5045487;28;20017;-80
2021/10/02 03:50:32;;;;;;;37.97;19.40;;;12.00;99.90;;;;;;5048828;28;20033;-80
2021/10/02 03:52:58;;;;;;;30.27;18.58;;;12.00;99.90;;;;;;5054120;28;20040;-81
2021/10/02 03:55:23;;;;;;;30.23;18.10;;;12.00;99.90;;;;;;5054775;28;20021;-81
2021/10/02 03:57:49;;;;;;;28.85;18.20;;;11.90;99.90;;;;;;5053318;28;20024;-79
2021/10/02 04:00:15;;;;;;;37.50;19.48;;;11.90;99.90;;;;;;5054597;28;20079;-80
2021/10/02 04:02:41;;;;;;;31.20;19.13;;;11.90;99.90;;;;;;5054428;28;20021;-78
2021/10/02 04:05:07;;;;;;;29.85;19.27;;;11.90;99.90;;;;;;5053900;28;20063;-81
2021/10/02 04:07:33;;;;;;;27.10;17.60;;;11.90;99.90;;;;;;5056664;28;20025;-80
2021/10/02 04:09:58;;;;;;;28.30;18.75;;;11.90;99.90;;;;;;5054672;28;20022;-80
2021/10/02 04:12:24;;;;;;;30.27;19.55;;;11.90;99.90;;;;;;5044622;28;20037;-81
2021/10/02 04:14:50;;;;;;;34.65;19.60;;;11.90;99.90;;;;;;5048950;28;20108;-81
2021/10/02 04:17:16;;;;;;;29.23;19.67;;;11.90;99.90;;;;;;5054388;28;20041;-79
2021/10/02 04:19:43;;;;;;;35.80;19.05;;;11.90;99.90;;;;;;5053558;28;20136;-81
2021/10/02 04:22:09;;;;;;;29.60;18.73;;;11.90;99.90;;;;;;5057490;28;20059;-80
2021/10/02 04:24:35;;;;;;;35.50;18.67;;;11.90;99.90;;;;;;5054651;28;20021;-80
2021/10/02 04:27:00;;;;;;;29.10;19.35;;;11.80;99.90;;;;;;5040069;28;20376;-80
2021/10/02 04:29:27;;;;;;;30.00;17.98;;;11.90;99.90;;;;;;5048610;28;20104;-80
2021/10/02 04:31:53;;;;;;;37.90;19.52;;;11.80;99.90;;;;;;5049117;28;20103;-80
2021/10/02 04:34:19;;;;;;;32.88;20.38;;;11.80;99.90;;;;;;5054000;28;20120;-80
2021/10/02 04:36:44;;;;;;;29.15;19.40;;;11.80;99.90;;;;;;5053492;28;20021;-80
2021/10/02 04:39:10;;;;;;;36.90;20.48;;;11.80;99.90;;;;;;5054152;28;20098;-80
2021/10/02 04:41:35;;;;;;;48.60;21.98;;;11.70;99.90;;;;;;5056035;28;20079;-81
2021/10/02 04:44:01;;;;;;;40.05;20.92;;;11.70;99.90;;;;;;5050222;28;20481;-80
2021/10/02 04:46:27;;;;;;;36.90;21.38;;;11.70;99.90;;;;;;5042373;28;20036;-80
2021/10/02 04:48:52;;;;;;;35.05;22.02;;;11.70;99.90;;;;;;5052808;28;20123;-80
2021/10/02 04:51:18;;;;;;;43.35;23.75;;;11.70;99.90;;;;;;5053448;28;20082;-80
2021/10/02 04:53:44;;;;;;;39.67;22.95;;;11.70;99.90;;;;;;5052468;28;20056;-80
2021/10/02 04:56:12;;;;;;;42.00;23.42;;;11.70;99.90;;;;;;5053220;28;20108;-80
2021/10/02 04:58:40;;;;;;;53.03;23.83;;;11.70;99.90;;;;;;5041635;28;20036;-80
2021/10/02 05:01:06;;;;;;;41.40;24.33;;;11.70;99.90;;;;;;5050465;28;20790;-80
2021/10/02 05:03:33;;;;;;;41.25;23.17;;;11.80;99.90;;;;;;5053205;28;20111;-80
2021/10/02 05:06:01;;;;;;;37.88;22.45;;;11.70;99.90;;;;;;5052675;28;20503;-80
2021/10/02 05:08:28;;;;;;;41.53;23.65;;;11.70;99.90;;;;;;5052351;28;20044;-80
2021/10/02 05:10:54;;;;;;;40.17;21.98;;;11.70;99.90;;;;;;5052846;28;20025;-81
2021/10/02 05:13:19;;;;;;;44.30;23.55;;;11.70;99.90;;;;;;5038870;28;21977;-78
2021/10/02 05:15:45;;;;;;;44.80;24.17;;;11.70;99.90;;;;;;5052186;28;20017;-80
2021/10/02 05:18:11;;;;;;;39.70;24.13;;;11.70;99.90;;;;;;5052811;28;20061;-81
2021/10/02 05:20:36;;;;;;;41.38;25.15;;;11.70;99.90;;;;;;5053105;28;20029;-81
2021/10/02 05:23:03;;;;;;;46.75;25.70;;;11.70;99.90;;;;;;5052401;28;20032;-81
2021/10/02 05:25:28;;;;;;;46.38;25.25;;;11.70;99.90;;;;;;5053169;28;20023;-81
2021/10/02 05:27:55;;;;;;;47.33;26.25;;;11.80;99.90;;;;;;5043084;28;20110;-80
2021/10/02 05:30:20;;;;;;;41.38;25.00;;;11.80;99.90;;;;;;5036815;28;20029;-81
2021/10/02 05:32:46;;;;;;;43.80;26.45;;;11.80;99.90;;;;;;5033659;28;20043;-81
2021/10/02 05:35:12;;;;;;;50.38;28.08;;;11.80;99.90;;;;;;5037163;28;20041;-81
2021/10/02 05:37:37;;;;;;;40.33;24.67;;;11.80;99.90;;;;;;5033591;28;20056;-81
2021/10/02 05:40:03;;;;;;;43.03;25.05;;;11.80;99.90;;;;;;5035083;28;20482;-82
2021/10/02 05:42:32;;;;;;;43.47;25.58;;;11.80;99.90;;;;;;5033163;28;20044;-81
2021/10/02 05:44:58;;;;;;;38.13;23.45;;;11.70;99.90;;;;;;5034164;28;20032;-79
2021/10/02 05:47:23;;;;;;;36.42;23.63;;;11.70;99.90;;;;;;5032261;28;20021;-80
2021/10/02 05:49:49;;;;;;;46.50;23.55;;;11.60;99.90;;;;;;5031563;28;20024;-79
2021/10/02 05:52:15;;;;;;;37.60;23.35;;;11.60;99.90;;;;;;5031648;28;20112;-80
2021/10/02 05:54:41;;;;;;;38.65;20.23;;;11.60;99.90;;;;;;5037110;28;20057;-80
2021/10/02 05:57:07;;;;;;;35.28;20.35;;;11.60;99.90;;;;;;5030992;28;20025;-80
2021/10/02 05:59:33;;;;;;;35.70;21.85;;;11.50;99.90;;;;;;5035389;28;20036;-78
2021/10/02 06:01:58;;;;;;;33.10;19.20;;;11.60;99.90;;;;;;5031643;28;20101;-81
2021/10/02 06:04:24;;;;;;;30.50;18.73;;;11.50;99.90;;;;;;5033860;28;20457;-79
2021/10/02 06:06:49;;;;;;;43.70;20.15;;;11.50;99.90;;;;;;5031680;28;20033;-80
2021/10/02 06:09:15;;;;;;;34.28;19.27;;;11.50;99.90;;;;;;5031506;28;20021;-80
2021/10/02 06:11:41;;;;;;;41.72;20.70;;;11.50;99.90;;;;;;5032193;28;20029;-79
2021/10/02 06:14:06;;;;;;;37.80;19.42;;;11.50;99.90;;;;;;5035919;28;20053;-79
2021/10/02 06:16:34;;;;;;;34.92;20.40;;;11.50;99.90;;;;;;5037238;28;20021;-79
2021/10/02 06:19:00;;;;;;;32.88;20.77;;;11.60;99.90;;;;;;5033232;28;20540;-79
2021/10/02 06:21:26;;;;;;;35.75;20.52;;;11.60;99.90;;;;;;5031637;28;20049;-80
2021/10/02 06:23:52;;;;;;;33.08;21.15;;;11.50;99.90;;;;;;5031661;28;20045;-80
2021/10/02 06:26:17;;;;;;;33.33;21.27;;;11.60;99.90;;;;;;5031543;28;20420;-80
2021/10/02 06:28:43;;;;;;;34.33;21.17;;;11.60;99.90;;;;;;5036689;28;20021;-79
2021/10/02 06:31:08;;;;;;;41.17;21.88;;;11.50;99.90;;;;;;5037273;28;20024;-80
2021/10/02 06:33:34;;;;;;;37.67;21.85;;;11.50;99.90;;;;;;5039607;28;20037;-80
2021/10/02 06:35:59;;;;;;;35.13;20.65;;;11.60;99.90;;;;;;5050694;28;20060;-81
2021/10/02 06:38:25;;;;;;;34.08;20.88;;;11.60;99.90;;;;;;5048640;28;20111;-80
2021/10/02 06:40:51;;;;;;;39.15;20.95;;;11.70;99.90;;;;;;5044763;28;20040;-80
2021/10/02 06:43:17;;;;;;;35.40;21.33;;;11.70;99.90;;;;;;5049559;28;20362;-80
2021/10/02 06:45:42;;;;;;;34.10;22.05;;;11.70;99.90;;;;;;5046104;28;20048;-80
2021/10/02 06:48:08;;;;;;;36.90;21.60;;;11.70;99.90;;;;;;5050246;28;20029;-80
2021/10/02 06:50:35;;;;;;;33.72;20.38;;;11.80;99.90;;;;;;5045005;28;20347;-80
2021/10/02 06:53:01;;;;;;;40.53;21.63;;;11.80;99.90;;;;;;5049996;28;20843;-80
2021/10/02 06:55:27;;;;;;;28.95;20.00;;;11.90;99.90;;;;;;5043638;28;20078;-80
2021/10/02 06:57:53;;;;;;;31.67;18.60;;;11.90;99.90;;;;;;5043771;28;20104;-80
2021/10/02 07:00:18;;;;;;;36.90;19.83;;;11.90;99.90;;;;;;5041974;28;20029;-81
2021/10/02 07:02:45;;;;;;;25.80;18.42;;;12.00;99.90;;;;;;5039014;28;20025;-81
2021/10/02 07:05:16;;;;;;;28.30;18.80;;;12.00;99.90;;;;;;5047199;28;20040;-80
2021/10/02 07:07:42;;;;;;;25.98;17.25;;;12.10;99.90;;;;;;5041586;28;20082;-80
2021/10/02 07:10:09;;;;;;;29.42;18.45;;;12.20;99.90;;;;;;5051153;28;20044;-80
2021/10/02 07:12:35;;;;;;;27.90;17.75;;;12.30;99.90;;;;;;5043191;28;20032;-80
2021/10/02 07:15:03;;;;;;;21.83;17.05;;;12.30;99.90;;;;;;5041404;28;20021;-79
2021/10/02 07:17:28;;;;;;;24.75;17.13;;;12.40;99.90;;;;;;5045370;28;20128;-80
2021/10/02 07:19:54;;;;;;;22.77;16.10;;;12.40;99.90;;;;;;5047704;28;20125;-80
2021/10/02 07:22:20;;;;;;;25.58;16.35;;;12.40;99.90;;;;;;5045013;28;20048;-78
2021/10/02 07:24:46;;;;;;;22.42;14.60;;;12.50;99.90;;;;;;5044648;28;20462;-80
2021/10/02 07:27:11;;;;;;;27.48;14.18;;;12.50;99.90;;;;;;5046704;28;20033;-80
2021/10/02 07:29:37;;;;;;;25.92;15.15;;;12.60;99.90;;;;;;5055356;28;20020;-80
2021/10/02 07:32:03;;;;;;;21.20;14.90;;;12.60;99.90;;;;;;5040799;28;20104;-81
2021/10/02 07:34:28;;;;;;;21.25;14.25;;;12.70;99.90;;;;;;5041948;28;20047;-80
2021/10/02 07:36:54;;;;;;;24.20;14.30;;;12.70;99.90;;;;;;5049331;28;20410;-79
2021/10/02 07:39:20;;;;;;;21.42;13.18;;;12.70;99.90;;;;;;5035895;28;20025;-79
2021/10/02 07:41:48;;;;;;;19.67;13.55;;;12.80;99.90;;;;;;5038159;28;20021;-80
2021/10/02 07:44:19;;;;;;;20.80;13.48;;;12.80;99.90;;;;;;5037548;28;20156;-81
2021/10/02 07:46:52;;;;;;;21.95;12.27;;;12.90;99.90;;;;;;5034330;28;20377;-79
2021/10/02 07:49:19;;;;;;;16.23;11.85;;;12.90;99.90;;;;;;5048613;28;20029;-77
2021/10/02 07:51:46;;;;;;;22.92;11.63;;;12.90;99.90;;;;;;5054435;28;20017;-79
2021/10/02 07:54:12;;;;;;;23.42;12.10;;;12.90;99.90;;;;;;5055298;28;20148;-79
2021/10/02 07:56:38;;;;;;;20.13;12.27;;;12.90;99.90;;;;;;5047801;28;20086;-80
2021/10/02 07:59:07;;;;;;;17.55;11.70;;;13.00;99.90;;;;;;5048860;28;20532;-80
2021/10/02 08:01:33;;;;;;;19.17;11.88;;;13.00;99.90;;;;;;5040657;28;20029;-78
2021/10/02 08:04:03;;;;;;;16.55;10.43;;;13.10;99.90;;;;;;5034657;28;20032;-81
2021/10/02 08:06:30;;;;;;;18.35;11.23;;;13.20;99.90;;;;;;5036286;28;20026;-80
2021/10/02 08:08:56;;;;;;;15.90;11.05;;;13.20;99.90;;;;;;5035085;28;20022;-81
2021/10/02 08:11:22;;;;;;;18.67;13.13;;;13.30;99.90;;;;;;5034313;28;20033;-82
2021/10/02 08:13:48;;;;;;;16.23;11.45;;;13.30;99.90;;;;;;5040979;28;20035;-81
2021/10/02 08:16:16;;;;;;;18.55;10.23;;;13.40;99.90;;;;;;5041907;28;20018;-76
2021/10/02 08:18:44;;;;;;;18.40;10.00;;;13.40;99.90;;;;;;5051753;28;20508;-76
2021/10/02 08:21:10;;;;;;;20.27;11.60;;;13.50;99.90;;;;;;5053372;28;20121;-76
2021/10/02 08:23:37;;;;;;;19.05;11.00;;;13.50;99.90;;;;;;5048486;28;20112;-78
2021/10/02 08:26:04;;;;;;;16.10;11.95;;;13.50;99.90;;;;;;5044710;28;20021;-76
2021/10/02 08:28:32;;;;;;;13.40;9.13;;;13.60;99.90;;;;;;5049150;28;20044;-75
2021/10/02 08:31:00;;;;;;;15.20;10.20;;;13.60;99.90;;;;;;5042765;28;20377;-74
2021/10/02 08:33:25;;;;;;;17.73;9.15;;;13.70;99.90;;;;;;5050498;28;20116;-74
2021/10/02 08:35:51;;;;;;;13.95;9.30;;;13.70;99.90;;;;;;5054282;28;20502;-81
2021/10/02 08:38:18;;;;;;;16.95;10.73;;;13.70;99.90;;;;;;5054247;28;20032;-79
2021/10/02 08:40:44;;;;;;;17.02;9.57;;;13.70;99.90;;;;;;5054251;28;20101;-79
2021/10/02 08:43:15;;;;;;;14.98;9.88;;;13.60;99.90;;;;;;5053874;28;20135;-76
2021/10/02 08:45:41;;;;;;;15.77;10.02;;;13.60;99.90;;;;;;5052905;28;20025;-76
2021/10/02 08:48:13;;;;;;;18.77;11.77;;;13.60;99.90;;;;;;5053527;28;20044;-77
2021/10/02 08:50:41;;;;;;;15.93;10.65;;;13.70;99.90;;;;;;5053985;28;20052;-77
2021/10/02 08:53:08;;;;;;;16.08;9.95;;;13.70;99.90;;;;;;5051587;28;20036;-79
2021/10/02 08:55:34;;;;;;;11.65;10.38;;;13.80;99.90;;;;;;5037164;28;20048;-81
2021/10/02 08:58:00;;;;;;;14.35;9.63;;;14.20;99.90;;;;;;5036062;28;20020;-80
2021/10/02 09:00:26;;;;;;;19.98;10.55;;;13.90;99.90;;;;;;5039012;28;20025;-79
2021/10/02 09:02:53;;;;;;;17.52;11.35;;;14.00;99.90;;;;;;5042783;28;20076;-79
2021/10/02 09:05:21;;;;;;;17.52;11.25;;;14.00;99.90;;;;;;5040492;28;20043;-79
2021/10/02 09:07:53;;;;;;;17.65;11.77;;;14.10;99.90;;;;;;5047644;28;20059;-79
2021/10/02 09:10:20;;;;;;;22.20;12.57;;;14.20;99.90;;;;;;5048528;28;20025;-80
2021/10/02 09:12:47;;;;;;;18.65;13.75;;;14.20;99.90;;;;;;5047873;28;20040;-80
2021/10/02 09:15:14;;;;;;;26.00;13.35;;;14.40;99.90;;;;;;5051271;28;20402;-80
2021/10/02 09:17:40;;;;;;;18.05;13.80;;;14.60;99.90;;;;;;5052177;28;20060;-80
2021/10/02 09:20:08;;;;;;;17.83;13.35;;;14.70;99.90;;;;;;5051080;28;20068;-80
2021/10/02 09:22:34;;;;;;;18.80;13.77;;;14.90;99.90;;;;;;5054561;28;20033;-80
2021/10/02 09:25:04;;;;;;;16.67;11.98;;;15.00;99.90;;;;;;5051954;28;20029;-81
2021/10/02 09:27:32;;;;;;;20.50;12.02;;;15.10;99.90;;;;;;5052507;28;20040;-80
2021/10/02 09:30:11;;;;;;;21.38;11.48;;;15.20;99.90;;;;;;5051464;28;20028;-79
2021/10/02 09:32:41;;;;;;;14.93;11.30;;;15.40;99.90;;;;;;5054865;28;20029;-80
2021/10/02 09:35:15;;;;;;;17.38;9.68;;;15.50;99.90;;;;;;5052181;28;20119;-80
2021/10/02 09:37:44;;;;;;;15.57;10.20;;;15.60;99.90;;;;;;5043906;28;20033;-80
2021/10/02 09:40:21;;;;;;;22.05;9.75;;;15.80;99.90;;;;;;5032598;28;20057;-80
2021/10/02 09:42:52;;;;;;;14.85;9.57;;;16.00;99.90;;;;;;5042545;28;20108;-80
2021/10/02 09:45:41;;;;;;;17.00;9.50;;;16.00;99.90;;;;;;5037753;28;20076;-81
2021/10/02 09:48:09;;;;;;;22.38;9.13;;;16.00;99.90;;;;;;5042702;28;20155;-80
2021/10/02 09:50:47;;;;;;;14.75;9.02;;;15.90;99.90;;;;;;5038200;28;20025;-82
2021/10/02 09:53:14;;;;;;;15.80;9.48;;;15.90;99.90;;;;;;5041337;28;20044;-80
2021/10/02 09:55:44;;;;;;;14.50;9.55;;;15.90;99.90;;;;;;5043007;28;20118;-81
2021/10/02 09:58:14;;;;;;;19.05;10.27;;;15.90;99.90;;;;;;5038842;28;20021;-81
2021/10/02 10:00:47;;;;;;;18.75;10.32;;;16.00;99.90;;;;;;5041051;28;20087;-81
2021/10/02 10:03:15;;;;;;;13.07;9.98;;;16.00;99.90;;;;;;5032238;28;20026;-82
2021/10/02 10:05:46;;;;;;;16.33;9.93;;;16.10;99.90;;;;;;5030897;28;20027;-81
2021/10/02 10:08:13;;;;;;;23.23;9.88;;;16.10;99.90;;;;;;5031141;28;20037;-80
2021/10/02 10:10:41;;;;;;;19.25;10.10;;;16.20;99.90;;;;;;5030470;28;20112;-80
2021/10/02 10:13:12;;;;;;;16.50;10.10;;;16.20;99.90;;;;;;5038164;28;20040;-81
2021/10/02 10:15:39;;;;;;;16.20;9.85;;;16.20;99.90;;;;;;5042380;28;20056;-81
2021/10/02 10:18:07;;;;;;;16.27;9.65;;;16.30;99.90;;;;;;5036489;28;20040;-81
2021/10/02 10:20:50;;;;;;;12.82;8.57;;;16.40;99.90;;;;;;5037794;28;20026;-82
2021/10/02 10:23:45;;;;;;;11.07;8.75;;;16.40;99.90;;;;;;5040523;28;20075;-80
2021/10/02 10:26:17;;;;;;;13.52;8.52;;;16.40;99.90;;;;;;5037817;28;20509;-82
2021/10/02 10:28:46;;;;;;;12.93;9.32;;;16.40;99.90;;;;;;5034481;28;20084;-82
2021/10/02 10:31:25;;;;;;;12.95;9.20;;;16.40;99.90;;;;;;5038015;28;20504;-81
2021/10/02 10:33:53;;;;;;;14.18;10.35;;;16.50;99.90;;;;;;5038728;28;20525;-82
2021/10/02 10:36:21;;;;;;;16.88;10.20;;;16.50;99.90;;;;;;5033567;28;20045;-75
2021/10/02 10:38:51;;;;;;;16.65;8.52;;;16.50;99.90;;;;;;5039105;28;20025;-81
2021/10/02 10:41:19;;;;;;;12.53;8.30;;;16.50;99.90;;;;;;5042408;28;20105;-81
2021/10/02 10:43:44;;;;;;;12.10;7.95;;;16.60;99.90;;;;;;5044142;28;20389;-82
2021/10/02 10:46:15;;;;;;;12.05;8.25;;;16.60;99.90;;;;;;5041773;28;20052;-82
2021/10/02 10:48:41;;;;;;;12.00;7.18;;;16.50;99.90;;;;;;5046441;28;20025;-81
2021/10/02 10:51:10;;;;;;;13.98;7.00;;;16.50;99.90;;;;;;5047230;28;20057;-81
2021/10/02 10:53:45;;;;;;;14.38;7.05;;;16.50;99.90;;;;;;5059553;28;20500;-81
2021/10/02 10:56:13;;;;;;;13.85;7.03;;;16.40;99.90;;;;;;5036996;28;20057;-81
2021/10/02 10:58:39;;;;;;;9.27;6.43;;;16.50;99.90;;;;;;5042159;28;20477;-82
2021/10/02 11:01:08;;;;;;;9.77;6.78;;;16.40;99.90;;;;;;5042615;28;20104;-81
2021/10/02 11:03:46;;;;;;;15.13;6.32;;;16.40;99.90;;;;;;5056841;28;20059;-81
2021/10/02 11:06:13;;;;;;;13.18;6.18;;;16.40;99.90;;;;;;5049091;28;20025;-81
2021/10/02 11:09:00;;;;;;;9.68;5.95;;;16.40;99.90;;;;;;5049384;28;20035;-81
2021/10/02 11:11:43;;;;;;;9.60;6.07;;;16.50;99.90;;;;;;5048202;28;20049;-82
2021/10/02 11:14:13;;;;;;;13.45;6.13;;;16.60;99.90;;;;;;5044851;28;20032;-82
2021/10/02 11:17:03;;;;;;;11.82;6.32;;;16.60;99.90;;;;;;5055797;28;20068;-82
2021/10/02 11:19:35;;;;;;;10.35;5.72;;;16.70;99.90;;;;;;5055797;28;20127;-81
2021/10/02 11:23:07;;;;;;;5.82;4.63;;;16.80;99.90;;;;;;5054892;28;20610;-82
2021/10/02 11:25:34;;;;;;;5.80;4.20;;;16.90;99.90;;;;;;4964493;28;20044;-80
2021/10/02 11:28:22;;;;;;;18.48;4.93;;;17.10;99.90;;;;;;5047374;28;20061;-81
2021/10/02 11:30:54;;;;;;;7.97;3.88;;;17.20;99.90;;;;;;5041846;28;20025;-80
2021/10/02 11:33:43;;;;;;;11.73;4.10;;;17.30;99.90;;;;;;5054505;28;20493;-80
2021/10/02 11:39:29;;;;;;;8.60;3.75;;;17.70;99.90;;;;;;5054646;28;20044;-80
2021/10/02 11:42:10;;;;;;;6.78;3.70;;;17.80;99.90;;;;;;5054158;28;20075;-80
2021/10/02 11:44:35;;;;;;;8.30;3.85;;;18.00;99.90;;;;;;5035407;28;20025;-79
2021/10/02 11:47:27;;;;;;;4.30;3.28;;;18.10;99.90;;;;;;5048701;28;20281;-80
2021/10/02 11:50:11;;;;;;;11.45;3.55;;;18.10;99.90;;;;;;5046823;28;20032;-79
2021/10/02 11:52:38;;;;;;;7.10;3.17;;;18.10;99.90;;;;;;5055138;28;20049;-81
2021/10/02 11:55:40;;;;;;;8.48;2.90;;;18.00;99.90;;;;;;5055281;28;20036;-80
2021/10/02 11:58:09;;;;;;;7.25;3.42;;;18.00;99.90;;;;;;5043226;28;20033;-81
2021/10/02 12:00:48;;;;;;;5.85;3.03;;;18.10;99.90;;;;;;5053422;28;20025;-80
2021/10/02 12:03:17;;;;;;;9.98;2.97;;;18.00;99.90;;;;;;5048128;28;20412;-81
2021/10/02 12:05:45;;;;;;;7.15;2.97;;;18.20;99.90;;;;;;5051589;28;20055;-80
2021/10/02 12:08:11;;;;;;;5.47;3.08;;;18.30;99.90;;;;;;5041762;28;20041;-79
2021/10/02 12:10:52;;;;;;;6.53;2.78;;;18.50;99.90;;;;;;5045530;28;20098;-81
2021/10/02 12:13:27;;;;;;;7.53;2.45;;;18.40;99.90;;;;;;5060788;28;20041;-81
2021/10/02 12:16:02;;;;;;;8.68;2.85;;;18.40;99.90;;;;;;5068654;28;20037;-82
2021/10/02 12:18:55;;;;;;;12.63;2.55;;;18.40;99.90;;;;;;5064889;28;20072;-82
2021/10/02 12:21:25;;;;;;;11.10;2.90;;;18.30;99.90;;;;;;5063840;28;20083;-80
2021/10/02 12:23:54;;;;;;;8.77;2.80;;;18.10;99.90;;;;;;5059442;28;20021;-81
2021/10/02 12:26:20;;;;;;;7.90;2.40;;;18.10;99.90;;;;;;5066544;28;20033;-81
2021/10/02 12:28:46;;;;;;;4.88;2.40;;;18.00;99.90;;;;;;5060116;28;20029;-82
2021/10/02 12:31:11;;;;;;;5.82;2.60;;;17.80;99.90;;;;;;5060142;28;20314;-80
2021/10/02 12:33:37;;;;;;;8.32;2.58;;;17.80;99.90;;;;;;5057028;28;20563;-80
2021/10/02 12:36:03;;;;;;;7.30;2.15;;;17.80;99.90;;;;;;5047058;28;20025;-80
2021/10/02 12:38:45;;;;;;;4.07;2.63;;;17.70;99.90;;;;;;5053791;28;20192;-82
2021/10/02 12:41:11;;;;;;;5.65;2.47;;;17.60;99.90;;;;;;5054735;28;20040;-81
2021/10/02 12:43:37;;;;;;;5.85;2.50;;;17.60;99.90;;;;;;5047902;28;20026;-76
2021/10/02 12:46:17;;;;;;;5.18;2.60;;;17.60;99.90;;;;;;5030506;28;20100;-72
2021/10/02 12:48:43;;;;;;;2.58;2.15;;;17.50;99.90;;;;;;5049492;28;20025;-71
2021/10/02 12:51:09;;;;;;;7.25;2.42;;;17.50;99.90;;;;;;5052267;28;20085;-73
2021/10/02 12:53:36;;;;;;;6.80;2.67;;;17.40;99.90;;;;;;5052124;28;20489;-73
2021/10/02 12:56:19;;;;;;;4.20;2.20;;;17.40;99.90;;;;;;5052993;28;20464;-73
2021/10/02 12:58:46;;;;;;;6.32;2.20;;;17.30;99.90;;;;;;5052099;28;20491;-73
2021/10/02 13:01:12;;;;;;;13.60;1.90;;;17.20;99.90;;;;;;5052976;28;20029;-73
2021/10/02 13:03:41;;;;;;;4.10;1.83;;;17.10;99.90;;;;;;5053150;28;20641;-73
2021/10/02 13:06:07;;;;;;;4.00;2.00;;;17.00;99.90;;;;;;5052172;28;20056;-73
2021/10/02 13:08:32;;;;;;;2.45;1.98;;;16.90;99.90;;;;;;5052682;28;20060;-73
2021/10/02 13:10:58;;;;;;;5.03;2.38;;;16.80;99.90;;;;;;5052818;28;20013;-73
2021/10/02 13:13:24;;;;;;;5.88;2.20;;;16.70;99.90;;;;;;5037962;28;20033;-73
2021/10/02 13:15:57;;;;;;;4.15;1.77;;;16.60;99.90;;;;;;5052388;28;20107;-73
2021/10/02 13:18:25;;;;;;;5.22;1.90;;;16.60;99.90;;;;;;5052686;28;20049;-72
2021/10/02 13:21:02;;;;;;;4.32;2.30;;;16.60;99.90;;;;;;5051902;28;20040;-73
2021/10/02 13:23:36;;;;;;;9.07;3.03;;;16.70;99.90;;;;;;5052549;28;20469;-72
2021/10/02 13:26:05;;;;;;;2.72;1.80;;;16.80;99.90;;;;;;5046531;28;20582;-75
2021/10/02 13:28:34;;;;;;;4.85;2.10;;;16.80;99.90;;;;;;5048009;28;20037;-73
2021/10/02 13:31:08;;;;;;;4.15;1.80;;;16.80;99.90;;;;;;5037846;28;20480;-74
2021/10/02 13:33:39;;;;;;;4.13;1.60;;;16.80;99.90;;;;;;5034620;28;20487;-73
2021/10/02 13:36:05;;;;;;;3.47;1.85;;;16.70;99.90;;;;;;5031825;28;20055;-74
2021/10/02 13:38:41;;;;;;;5.00;2.03;;;16.70;99.90;;;;;;5036969;28;20041;-73
2021/10/02 13:41:08;;;;;;;3.78;2.00;;;16.70;99.90;;;;;;5033852;28;20020;-74